Aérodrome :
LOGIN :

S'inscrire | Disclaimer

   EN    FR    IT 

 










Légende :    VFR   VFR Marginal   IFR   IFR Intensif   IFR Très Intensif
Visi : 
Plafond : 
>= 8 km
>= 3000ft
5 à 8 km
1000 à 3000 ft
1500m à 5 km
500 à 1000 ft
800 à 1500m
200 à 500 ft
< 800m
< 200 ft
Symboles :   Orages  Brouillard  Fortes neiges  Fortes précipitations  Vent > 20 kt
SIGMETs :   Divers  Orages  Givrage  Turbulence  Onde Orograph.  Cendres Volcan.







- Altitude de l'aérodrome : 1649 ft
- Code IATA : HHN


EDFH - Frankfurt-Hahn Rhineland-Palatinate

DERNIER METAR :
  • 200850Z 31008KT 280V350 5000 BR SCT005 BKN008 12/10 Q1006

METARs EXPIRÉS :
  • 200820Z 32008KT 290V350 4000 BR BKN006 12/11 Q1006
  • 200750Z 34006KT 310V010 4000 BR BKN007 11/11 Q1006
  • 200720Z 34006KT 300V020 3000 BR BKN005 11/11 Q1006
  • 200650Z 33006KT 3000 BR SCT003 BKN006 10/10 Q1006
  • 200620Z 33005KT 300V360 3000 BR SCT002 BKN005 10/10 Q1006

TAF TAF EDFH
Valide du 20 à 06h jusqu'au 21 à 06h UTC


200500Z 2006/2106 30006KT 3000 BR SCT002 BKN005
TEMPO 2006/2008 0500 FG BKN001
BECMG 2008/2010 9999
TEMPO 2012/2021 TSRA BKN025CB
BECMG 2013/2015 31011KT
PROB30
TEMPO 2013/2019 36015G25KT 3000 +TSRAGR BKN009 BKN015CB
TEMPO 2021/2024 4500 RA BKN004
TEMPO 2100/2106 0500 FG BKN001
Pas de NOTAMs connus pour ce terrain.



MET'MAP, la Météo Aéronautique d'un coup d'oeil ! - Copyright ORBIFLY Décembre 2007 - Disclaimer

ORBIFLY MET'MAP TEAM :

Programmation & Développement : Alexandra Zaïnal
Conception & Développement : Baudouin d'Aumeries
Co-Programmation & Développement : Marc-Olivier Méhu
Soutien technique & logistique : Manuel Goepfert

Contact : metmap@orbifly.com




SOURCES & CREDITS :

   NOAA